Time;durP1;ratioP1;P1;durP2;ratioP2;P2;SDS_P1;SDS_P2;PMS_P1;PMS_P2;Temp;Humidity;BMP_temperature;BMP_pressure;BME280_temperature;BME280_humidity;BME280_pressure;Samples;Min_cycle;Max_cycle;Signal;HPM_P1;HPM_P2
2023/05/05 00:01:33;;;;;;;;;;;;;;;15.88;38.88;100987.22;4940767;28;99631;-75
2023/05/05 00:04:00;;;;;;;;;;;;;;;15.84;38.61;100984.25;4943346;27;98369;-75
2023/05/05 00:06:30;;;;;;;;;;;;;;;15.82;38.70;100981.00;4922933;28;99746;-75
2023/05/05 00:08:57;;;;;;;;;;;;;;;15.78;38.75;100984.59;4952251;28;100166;-75
2023/05/05 00:11:24;;;;;;;;;;;;;;;15.77;38.79;100988.44;4926448;28;99964;-75
2023/05/05 00:13:52;;;;;;;;;;;;;;;15.73;38.70;100988.19;4920932;27;99434;-75
2023/05/05 00:16:21;;;;;;;;;;;;;;;15.72;38.75;100986.59;4925884;28;98548;-75
2023/05/05 00:18:48;;;;;;;;;;;;;;;15.69;39.04;100987.97;4960775;27;98305;-75
2023/05/05 00:21:17;;;;;;;;;;;;;;;15.67;38.71;100992.84;4958561;28;97979;-75
2023/05/05 00:23:43;;;;;;;;;;;;;;;15.63;38.69;100994.50;4928764;27;98303;-75
2023/05/05 00:26:10;;;;;;;;;;;;;;;15.60;38.71;100986.13;4952272;28;98086;-75
2023/05/05 00:28:39;;;;;;;;;;;;;;;15.58;38.80;100988.31;4935449;28;98280;-75
2023/05/05 00:31:06;;;;;;;;;;;;;;;15.55;39.14;100975.31;4925860;28;98191;-75
2023/05/05 00:33:33;;;;;;;;;;;;;;;15.53;38.85;100988.38;4925684;28;98128;-75
2023/05/05 00:36:03;;;;;;;;;;;;;;;15.50;38.79;100978.09;4918551;28;98334;-75
2023/05/05 00:38:30;;;;;;;;;;;;;;;15.46;38.76;100972.41;4953665;27;98627;-75
2023/05/05 00:40:57;;;;;;;;;;;;;;;15.44;38.82;100971.88;4937833;28;98202;-75
2023/05/05 00:43:26;;;;;;;;;;;;;;;15.42;38.96;100966.75;4926425;28;97998;-75
2023/05/05 00:46:00;;;;;;;;;;;;;;;15.39;38.70;100971.94;4927890;28;99285;-75
2023/05/05 00:48:30;;;;;;;;;;;;;;;15.36;39.08;100973.31;4940971;28;98922;-75
2023/05/05 00:50:57;;;;;;;;;;;;;;;15.34;39.11;100972.81;4925934;28;98555;-75
2023/05/05 00:53:23;;;;;;;;;;;;;;;15.32;39.10;100968.75;4927819;28;98279;-75
2023/05/05 00:55:51;;;;;;;;;;;;;;;15.30;39.04;100976.41;4929184;28;98236;-75
2023/05/05 00:58:17;;;;;;;;;;;;;;;15.27;39.22;100976.97;4925463;28;99596;-75
2023/05/05 01:00:44;;;;;;;;;;;;;;;15.25;38.93;100971.81;4920993;28;98243;-75
2023/05/05 01:03:14;;;;;;;;;;;;;;;15.23;38.83;100979.44;4926036;28;98016;-75
2023/05/05 01:05:53;;;;;;;;;;;;;;;15.21;39.25;100982.44;4968147;28;98166;-75
2023/05/05 01:08:45;;;;;;;;;;;;;;;15.19;39.03;100975.66;4955541;28;98197;-76
2023/05/05 01:11:20;;;;;;;;;;;;;;;15.16;39.28;100978.94;4941533;28;99750;-75
2023/05/05 01:13:47;;;;;;;;;;;;;;;15.14;39.04;100979.25;4935704;28;98169;-75
2023/05/05 01:16:21;;;;;;;;;;;;;;;15.12;38.83;100972.47;4955984;28;98256;-75
2023/05/05 01:19:07;;;;;;;;;;;;;;;15.10;38.93;100980.09;4945378;28;98680;-75
2023/05/05 01:21:38;;;;;;;;;;;;;;;15.07;39.02;100972.53;4950092;28;98122;-76
2023/05/05 01:24:27;;;;;;;;;;;;;;;15.05;38.86;100977.41;4925428;28;98243;-75
2023/05/05 01:27:38;;;;;;;;;;;;;;;15.02;38.89;100972.56;4980515;27;98122;-75
2023/05/05 01:30:16;;;;;;;;;;;;;;;14.98;39.05;100973.13;4939873;28;98387;-75
2023/05/05 01:32:48;;;;;;;;;;;;;;;14.97;39.27;100979.66;4952632;28;100693;-76
2023/05/05 01:35:20;;;;;;;;;;;;;;;14.95;38.93;100981.03;4936369;28;98771;-75
2023/05/05 01:37:52;;;;;;;;;;;;;;;14.91;39.25;100969.94;4927405;28;98115;-76
2023/05/05 01:40:24;;;;;;;;;;;;;;;14.90;38.84;100962.09;4943665;28;97933;-76
2023/05/05 01:42:51;;;;;;;;;;;;;;;14.88;39.12;100966.97;4940461;28;98391;-76
2023/05/05 01:45:21;;;;;;;;;;;;;;;14.85;39.37;100967.53;4924031;28;98188;-75
2023/05/05 01:47:49;;;;;;;;;;;;;;;14.83;39.30;100970.53;4921963;28;98475;-76
2023/05/05 01:50:16;;;;;;;;;;;;;;;14.81;39.37;100961.88;4923994;28;98081;-75
2023/05/05 01:52:43;;;;;;;;;;;;;;;14.78;39.03;100959.75;4936860;28;100649;-76
2023/05/05 01:55:10;;;;;;;;;;;;;;;14.75;39.04;100960.31;4938615;28;98083;-76
2023/05/05 01:57:41;;;;;;;;;;;;;;;14.74;39.26;100958.69;4927293;28;98018;-75
2023/05/05 02:00:10;;;;;;;;;;;;;;;14.72;39.11;100958.94;4940138;28;99715;-76
2023/05/05 02:02:39;;;;;;;;;;;;;;;14.70;39.35;100963.88;4926292;28;98142;-75
2023/05/05 02:05:06;;;;;;;;;;;;;;;14.68;39.12;100951.66;4937347;28;98813;-76
2023/05/05 02:07:36;;;;;;;;;;;;;;;14.68;39.13;100951.66;4945337;28;98384;-76
2023/05/05 02:10:03;;;;;;;;;;;;;;;14.75;39.28;100951.34;4925205;28;98350;-76
2023/05/05 02:12:31;;;;;;;;;;;;;;;14.79;39.12;100945.06;4940098;28;98368;-76
2023/05/05 02:14:59;;;;;;;;;;;;;;;14.84;39.23;100946.94;4926405;28;98593;-76
2023/05/05 02:17:27;;;;;;;;;;;;;;;14.88;39.36;100950.69;4926849;27;98358;-76
2023/05/05 02:19:55;;;;;;;;;;;;;;;14.90;39.02;100945.81;4941620;28;98719;-76
2023/05/05 02:22:24;;;;;;;;;;;;;;;14.93;39.23;100956.06;4929097;28;98317;-76
2023/05/05 02:24:53;;;;;;;;;;;;;;;14.93;39.10;100954.19;4925444;28;98434;-76
2023/05/05 02:27:23;;;;;;;;;;;;;;;14.94;39.05;100950.38;4941307;28;98262;-75
2023/05/05 02:29:58;;;;;;;;;;;;;;;14.95;39.09;100951.19;4925794;28;98131;-76
2023/05/05 02:32:35;;;;;;;;;;;;;;;14.97;39.40;100957.13;4924061;28;97956;-76
2023/05/05 02:35:14;;;;;;;;;;;;;;;14.95;39.14;100957.41;4944570;28;98405;-75
2023/05/05 02:37:44;;;;;;;;;;;;;;;14.95;39.45;100957.41;4944936;28;98194;-76
2023/05/05 02:40:11;;;;;;;;;;;;;;;14.94;39.25;100952.28;4937114;28;97965;-76
2023/05/05 02:42:40;;;;;;;;;;;;;;;14.94;39.34;100955.00;4926475;28;99196;-76
2023/05/05 02:45:11;;;;;;;;;;;;;;;14.93;39.16;100954.19;4927177;28;99262;-76
2023/05/05 02:47:38;;;;;;;;;;;;;;;14.92;39.28;100957.97;4953277;28;99012;-76
2023/05/05 02:50:07;;;;;;;;;;;;;;;14.91;39.38;100961.00;4926000;28;99399;-76
2023/05/05 02:52:34;;;;;;;;;;;;;;;14.91;39.46;100958.28;4960412;28;98192;-76
2023/05/05 02:55:07;;;;;;;;;;;;;;;14.89;39.52;100965.88;4937448;28;98285;-76
2023/05/05 02:57:59;;;;;;;;;;;;;;;14.88;39.19;100961.56;4927377;28;98217;-76
2023/05/05 03:00:33;;;;;;;;;;;;;;;14.87;39.20;100968.06;4944410;28;98337;-76
2023/05/05 03:03:16;;;;;;;;;;;;;;;14.84;39.51;100965.91;4943668;28;97954;-76
2023/05/05 03:05:55;;;;;;;;;;;;;;;14.83;39.18;100964.31;4946331;27;98130;-76
2023/05/05 03:08:31;;;;;;;;;;;;;;;14.80;39.64;100971.09;4923853;28;98228;-76
2023/05/05 03:11:07;;;;;;;;;;;;;;;14.79;39.61;100972.22;4940595;28;98768;-76
2023/05/05 03:13:37;;;;;;;;;;;;;;;14.77;39.51;100968.94;4943106;28;97948;-76
2023/05/05 03:16:06;;;;;;;;;;;;;;;14.76;39.23;100969.25;4952186;28;98041;-76
2023/05/05 03:18:33;;;;;;;;;;;;;;;14.74;39.25;100969.53;4951277;28;98278;-76
2023/05/05 03:21:07;;;;;;;;;;;;;;;14.72;39.53;100966.28;4928393;28;98080;-76
2023/05/05 03:23:35;;;;;;;;;;;;;;;14.70;39.33;100972.00;4942739;28;98408;-76
2023/05/05 03:26:02;;;;;;;;;;;;;;;14.69;39.36;100974.97;4972008;27;97917;-76
2023/05/05 03:28:29;;;;;;;;;;;;;;;14.68;39.46;100973.38;4938334;28;98278;-76
2023/05/05 03:30:56;;;;;;;;;;;;;;;14.66;39.45;100972.84;4928466;28;98118;-76
2023/05/05 03:33:22;;;;;;;;;;;;;;;14.64;39.57;100975.84;4956873;28;98769;-76
2023/05/05 03:35:49;;;;;;;;;;;;;;;14.63;39.35;100974.22;4952388;28;120076;-76
2023/05/05 03:38:15;;;;;;;;;;;;;;;14.62;39.27;100972.59;4942005;28;98220;-76
2023/05/05 03:40:42;;;;;;;;;;;;;;;14.61;39.44;100972.88;4924339;28;98456;-76
2023/05/05 03:43:08;;;;;;;;;;;;;;;14.60;39.64;100963.94;4937366;28;98306;-77
2023/05/05 03:45:35;;;;;;;;;;;;;;;14.61;39.34;100967.44;4956676;28;97839;-75
2023/05/05 03:48:01;;;;;;;;;;;;;;;14.61;39.33;100964.72;4920722;28;98052;-76
2023/05/05 03:50:28;;;;;;;;;;;;;;;14.61;39.29;100964.72;4937707;28;98187;-75
2023/05/05 03:52:54;;;;;;;;;;;;;;;14.60;39.28;100961.22;4938176;28;99601;-76
2023/05/05 03:55:22;;;;;;;;;;;;;;;14.61;39.27;100964.72;4941644;28;98212;-76
2023/05/05 03:57:48;;;;;;;;;;;;;;;14.62;39.28;100960.91;4927692;28;99584;-75
2023/05/05 04:00:17;;;;;;;;;;;;;;;14.61;39.58;100965.53;4926315;28;98424;-76
2023/05/05 04:02:45;;;;;;;;;;;;;;;14.63;39.48;100955.22;4926956;28;101181;-75
2023/05/05 04:05:12;;;;;;;;;;;;;;;14.64;39.50;100958.75;4924440;28;99537;-76
2023/05/05 04:07:38;;;;;;;;;;;;;;;14.66;39.59;100960.09;4927119;28;99677;-76
2023/05/05 04:10:08;;;;;;;;;;;;;;;14.68;39.55;100957.09;4924441;28;105575;-76
2023/05/05 04:12:36;;;;;;;;;;;;;;;14.70;39.51;100953.00;4936737;27;97959;-75
2023/05/05 04:15:02;;;;;;;;;;;;;;;14.73;39.31;100951.63;4957814;27;98214;-75
2023/05/05 04:17:32;;;;;;;;;;;;;;;14.77;39.36;100958.09;4941651;28;98310;-76
2023/05/05 04:20:01;;;;;;;;;;;;;;;14.81;39.33;100955.63;4942494;28;102383;-75
2023/05/05 04:22:31;;;;;;;;;;;;;;;14.84;39.50;100953.16;4928508;28;98491;-75
2023/05/05 04:24:57;;;;;;;;;;;;;;;14.90;39.19;100956.66;4955424;28;98144;-76
2023/05/05 04:27:27;;;;;;;;;;;;;;;14.93;38.93;100951.47;4940572;28;98347;-75
2023/05/05 04:29:54;;;;;;;;;;;;;;;14.98;38.96;100945.19;4957273;28;98608;-76
2023/05/05 04:32:20;;;;;;;;;;;;;;;15.06;39.31;100949.19;4956520;28;99282;-76
2023/05/05 04:34:47;;;;;;;;;;;;;;;15.14;39.15;100956.72;4923408;28;98582;-76
2023/05/05 04:37:14;;;;;;;;;;;;;;;15.22;39.31;100950.66;4918882;28;98175;-76
2023/05/05 04:39:41;;;;;;;;;;;;;;;15.31;39.30;100954.38;4965239;28;100003;-76
2023/05/05 04:42:11;;;;;;;;;;;;;;;15.37;39.02;100955.94;4925792;28;98119;-76
2023/05/05 04:44:40;;;;;;;;;;;;;;;15.46;38.93;100961.56;4938404;28;98263;-76
2023/05/05 04:47:06;;;;;;;;;;;;;;;15.53;39.01;100969.38;4916759;28;98629;-76
2023/05/05 04:49:34;;;;;;;;;;;;;;;15.58;38.98;100972.03;4949824;28;98239;-76
2023/05/05 04:52:00;;;;;;;;;;;;;;;15.63;38.79;100977.41;4939959;28;98920;-76
2023/05/05 04:54:27;;;;;;;;;;;;;;;15.68;38.97;100972.75;4916431;28;98706;-76
2023/05/05 04:56:54;;;;;;;;;;;;;;;15.75;38.74;100974.31;4922975;28;98088;-76
2023/05/05 04:59:21;;;;;;;;;;;;;;;15.79;38.90;100980.78;4921748;28;99400;-76
2023/05/05 05:01:49;;;;;;;;;;;;;;;15.80;38.78;100975.06;4920966;28;98026;-76
2023/05/05 05:04:17;;;;;;;;;;;;;;;15.84;39.15;100980.75;4935967;28;100149;-76
2023/05/05 05:06:44;;;;;;;;;;;;;;;15.90;39.08;100982.28;4947612;27;98748;-76
2023/05/05 05:09:13;;;;;;;;;;;;;;;15.96;39.06;100978.41;4922996;28;98205;-76
2023/05/05 05:11:40;;;;;;;;;;;;;;;16.02;39.13;100979.94;4920249;27;98168;-76
2023/05/05 05:14:08;;;;;;;;;;;;;;;16.07;38.89;100979.06;4953534;27;98333;-76
2023/05/05 05:16:35;;;;;;;;;;;;;;;16.11;38.81;100975.50;4923195;28;99417;-76
2023/05/05 05:19:04;;;;;;;;;;;;;;;16.17;38.91;100987.13;4918324;28;98603;-76
2023/05/05 05:21:31;;;;;;;;;;;;;;;16.22;38.82;100978.06;4923758;28;98331;-76
2023/05/05 05:23:58;;;;;;;;;;;;;;;16.25;38.80;100975.56;4912886;28;99261;-76
2023/05/05 05:26:24;;;;;;;;;;;;;;;16.31;38.83;100981.75;4923494;28;98286;-76
2023/05/05 05:28:53;;;;;;;;;;;;;;;16.37;38.90;100983.31;4939559;28;98216;-76
2023/05/05 05:31:23;;;;;;;;;;;;;;;16.47;38.75;100979.66;4919771;28;98413;-76
2023/05/05 05:33:50;;;;;;;;;;;;;;;16.59;38.78;100983.53;4952124;28;98309;-76
2023/05/05 05:36:16;;;;;;;;;;;;;;;16.74;38.48;100984.41;4917808;28;98515;-76
2023/05/05 05:38:43;;;;;;;;;;;;;;;16.87;38.45;100981.75;4955219;28;98160;-76
2023/05/05 05:41:11;;;;;;;;;;;;;;;17.06;38.49;100983.66;4955867;27;97928;-77
2023/05/05 05:43:38;;;;;;;;;;;;;;;17.20;38.41;100992.66;4921041;28;101300;-77
2023/05/05 05:46:05;;;;;;;;;;;;;;;17.28;38.26;100989.25;4919575;28;98448;-76
2023/05/05 05:48:31;;;;;;;;;;;;;;;17.36;38.58;100985.81;4939143;27;99009;-76
2023/05/05 05:51:04;;;;;;;;;;;;;;;17.45;38.33;100983.22;4936409;27;98351;-77
2023/05/05 05:53:31;;;;;;;;;;;;;;;17.55;38.33;100983.03;4938127;28;99725;-77
2023/05/05 05:55:57;;;;;;;;;;;;;;;17.70;38.44;100984.66;4918890;28;98183;-77
2023/05/05 05:58:26;;;;;;;;;;;;;;;17.88;38.13;100980.22;4915341;28;98621;-77
2023/05/05 06:00:53;;;;;;;;;;;;;;;18.11;38.06;100972.94;4921886;28;97874;-77
2023/05/05 06:03:20;;;;;;;;;;;;;;;18.36;38.05;100974.31;4914579;28;98013;-77
2023/05/05 06:05:49;;;;;;;;;;;;;;;18.53;37.96;100979.91;4947454;28;98383;-76
2023/05/05 06:08:16;;;;;;;;;;;;;;;18.67;37.98;100977.16;4936569;28;99482;-77
2023/05/05 06:10:42;;;;;;;;;;;;;;;18.73;37.98;100975.94;4925871;28;98179;-77
2023/05/05 06:13:14;;;;;;;;;;;;;;;18.76;38.23;100980.78;4953343;28;98510;-77
2023/05/05 06:15:40;;;;;;;;;;;;;;;19.05;37.72;100980.31;4950259;28;98326;-77
2023/05/05 06:18:07;;;;;;;;;;;;;;;19.28;37.81;100983.84;4933402;28;99388;-77
2023/05/05 06:20:35;;;;;;;;;;;;;;;19.55;37.59;100982.84;4930849;28;98071;-77
2023/05/05 06:23:03;;;;;;;;;;;;;;;20.00;37.32;100980.00;4929627;28;98120;-78
2023/05/05 06:25:30;;;;;;;;;;;;;;;;;;4941397;28;98267;-78
2023/05/05 06:27:57;;;;;;;;;;;;;;;21.22;36.45;100975.34;4933006;28;98222;-78
2023/05/05 06:30:24;;;;;;;;;;;;;;;21.77;36.28;100973.66;4950877;28;98170;-78
2023/05/05 06:32:56;;;;;;;;;;;;;;;22.32;36.03;100972.72;4919401;28;99318;-79
2023/05/05 06:35:24;;;;;;;;;;;;;;;22.79;36.01;100969.75;4933765;28;98141;-78
2023/05/05 06:37:51;;;;;;;;;;;;;;;23.23;35.97;100979.19;4922444;28;98667;-79
2023/05/05 06:40:17;;;;;;;;;;;;;;;23.68;35.76;100974.81;4921861;28;98431;-79
2023/05/05 06:42:44;;;;;;;;;;;;;;;24.17;35.79;100972.00;4937197;28;99717;-79
2023/05/05 06:45:21;;;;;;;;;;;;;;;24.56;35.40;100981.44;4922209;28;98097;-79
2023/05/05 06:47:48;;;;;;;;;;;;;;;24.31;36.22;100979.91;4929366;28;98438;-79
2023/05/05 06:50:15;;;;;;;;;;;;;;;24.78;35.95;100980.13;4916539;28;97909;-79
2023/05/05 06:52:42;;;;;;;;;;;;;;;25.18;35.71;100985.56;4921322;28;98853;-79
2023/05/05 06:55:09;;;;;;;;;;;;;;;25.57;35.59;100982.22;4935091;28;98642;-79
2023/05/05 06:57:37;;;;;;;;;;;;;;;25.98;35.44;100980.88;4921230;28;99183;-78
2023/05/05 07:00:08;;;;;;;;;;;;;;;26.38;35.64;100977.00;4922922;28;98190;-79
2023/05/05 07:02:37;;;;;;;;;;;;;;;26.79;35.08;100971.94;4924559;28;98370;-78
2023/05/05 07:05:05;;;;;;;;;;;;;;;27.20;35.18;100975.91;4919071;28;98257;-79
2023/05/05 07:07:34;;;;;;;;;;;;;;;27.59;35.06;100973.00;4921292;28;98761;-79
2023/05/05 07:10:03;;;;;;;;;;;;;;;27.91;34.80;100975.50;4935686;28;98201;-78
2023/05/05 07:12:31;;;;;;;;;;;;;;;28.32;35.08;100976.47;4937147;28;98138;-79
2023/05/05 07:15:02;;;;;;;;;;;;;;;28.72;34.68;100975.78;4938623;28;98588;-78
2023/05/05 07:17:29;;;;;;;;;;;;;;;29.17;34.35;100971.16;4916801;28;98321;-78
2023/05/05 07:19:57;;;;;;;;;;;;;;;29.53;34.64;100979.78;4926440;28;98368;-78
2023/05/05 07:22:28;;;;;;;;;;;;;;;30.00;34.17;100967.06;4924470;28;98191;-78
2023/05/05 07:24:55;;;;;;;;;;;;;;;30.48;34.23;100972.47;4932902;28;99960;-78
2023/05/05 07:27:23;;;;;;;;;;;;;;;30.86;34.05;100973.84;4923127;28;98312;-77
2023/05/05 07:29:51;;;;;;;;;;;;;;;31.25;33.83;100975.88;4935002;28;98320;-80
2023/05/05 07:32:21;;;;;;;;;;;;;;;31.67;33.91;100974.31;4924687;28;98278;-77
2023/05/05 07:34:49;;;;;;;;;;;;;;;31.80;34.10;100978.28;4928304;28;98424;-77
2023/05/05 07:37:15;;;;;;;;;;;;;;;32.14;33.90;100983.41;4956080;28;99261;-80
2023/05/05 07:39:46;;;;;;;;;;;;;;;32.50;34.06;100976.53;4923836;28;99805;-79
2023/05/05 07:42:13;;;;;;;;;;;;;;;32.85;34.00;100982.31;4919144;28;100405;-77
2023/05/05 07:44:42;;;;;;;;;;;;;;;33.26;33.30;100976.91;4947234;27;98582;-80
2023/05/05 07:47:11;;;;;;;;;;;;;;;33.71;33.43;100982.50;4957932;28;98294;-80
2023/05/05 07:49:37;;;;;;;;;;;;;;;34.11;33.33;100978.16;4917887;28;98044;-76
2023/05/05 07:52:05;;;;;;;;;;;;;;;34.42;32.98;100970.56;4953752;28;98341;-76
2023/05/05 07:54:35;;;;;;;;;;;;;;;35.02;33.01;100976.59;4952532;28;98259;-76
2023/05/05 07:57:06;;;;;;;;;;;;;;;35.56;32.64;100975.75;4939795;28;98238;-80
2023/05/05 07:59:37;;;;;;;;;;;;;;;36.29;32.57;100974.00;4936732;28;98771;-76
2023/05/05 08:02:05;;;;;;;;;;;;;;;37.02;32.00;100975.63;4938477;28;98247;-76
2023/05/05 08:04:34;;;;;;;;;;;;;;;37.73;31.71;100983.50;4939396;28;98104;-81
2023/05/05 08:07:00;;;;;;;;;;;;;;;38.41;31.37;100981.66;4936332;28;98456;-74
2023/05/05 08:09:29;;;;;;;;;;;;;;;38.79;31.43;100979.72;4932460;28;97817;-76
2023/05/05 08:11:56;;;;;;;;;;;;;;;39.17;31.41;100978.88;4950014;28;98139;-81
2023/05/05 08:14:25;;;;;;;;;;;;;;;39.59;31.09;100972.28;4923280;28;98173;-81
2023/05/05 08:16:52;;;;;;;;;;;;;;;40.13;31.15;100968.38;4924139;28;99368;-78
2023/05/05 08:19:20;;;;;;;;;;;;;;;40.71;30.76;100967.75;4933959;28;98115;-76
2023/05/05 08:21:48;;;;;;;;;;;;;;;41.36;30.61;100972.38;4941063;28;98152;-82
2023/05/05 08:24:14;;;;;;;;;;;;;;;41.97;30.04;100954.81;4951657;28;98159;-81
2023/05/05 08:26:52;;;;;;;;;;;;;;;42.38;29.89;100959.03;4918201;28;98237;-76
2023/05/05 08:29:20;;;;;;;;;;;;;;;43.08;29.72;100953.25;4955718;27;98205;-82
2023/05/05 08:31:46;;;;;;;;;;;;;;;43.35;29.67;100938.88;4924194;28;98330;-85
2023/05/05 08:34:14;;;;;;;;;;;;;;;43.59;29.76;100943.75;4923020;28;97995;-73
2023/05/05 08:36:40;;;;;;;;;;;;;;;44.24;29.56;100932.56;4952482;27;98310;-74
2023/05/05 08:39:07;;;;;;;;;;;;;;;44.80;29.07;100934.25;4953330;28;98261;-84
2023/05/05 08:41:34;;;;;;;;;;;;;;;45.46;29.04;100932.81;4949935;27;98200;-81
2023/05/05 08:44:01;;;;;;;;;;;;;;;45.90;28.96;100926.06;4936246;28;98673;-73
2023/05/05 08:46:29;;;;;;;;;;;;;;;44.68;29.79;100918.31;4917602;28;98573;-82
2023/05/05 08:48:56;;;;;;;;;;;;;;;43.70;30.65;100907.06;4924410;28;98175;-81
2023/05/05 08:51:23;;;;;;;;;;;;;;;42.64;31.62;100902.72;4955529;28;98164;-85
2023/05/05 08:54:06;;;;;;;;;;;;;;;41.39;32.21;100900.75;4952347;27;98106;-83
2023/05/05 08:56:35;;;;;;;;;;;;;;;40.70;32.57;100901.25;4970905;28;98323;-82
2023/05/05 08:59:03;;;;;;;;;;;;;;;41.17;32.08;100903.72;4923204;28;100326;-73
2023/05/05 09:01:32;;;;;;;;;;;;;;;40.96;31.98;100901.78;4957792;28;98310;-73
2023/05/05 09:03:59;;;;;;;;;;;;;;;41.31;31.83;100899.50;4971696;27;98571;-82
2023/05/05 09:06:27;;;;;;;;;;;;;;;41.87;30.94;100903.91;4922319;28;98043;-73
2023/05/05 09:08:56;;;;;;;;;;;;;;;41.69;31.11;100899.03;4923500;28;97964;-81
2023/05/05 09:11:23;;;;;;;;;;;;;;;42.71;30.14;100901.63;4922703;28;99382;-82
2023/05/05 09:13:52;;;;;;;;;;;;;;;44.31;29.24;100898.13;4955826;28;97894;-75
2023/05/05 09:16:21;;;;;;;;;;;;;;;45.20;28.81;100900.69;4921747;28;98256;-73
2023/05/05 09:18:51;;;;;;;;;;;;;;;44.85;29.37;100897.91;4918905;28;99865;-74
2023/05/05 09:21:24;;;;;;;;;;;;;;;45.00;29.52;100896.56;4921944;28;98159;-75
2023/05/05 09:24:10;;;;;;;;;;;;;;;45.19;29.78;100897.06;4936492;27;97969;-84
2023/05/05 09:26:43;;;;;;;;;;;;;;;45.50;29.62;100899.25;4965612;28;98220;-73
2023/05/05 09:29:22;;;;;;;;;;;;;;;46.10;29.52;100893.09;4921868;28;98794;-86
2023/05/05 09:32:07;;;;;;;;;;;;;;;46.74;29.38;100900.34;4933158;28;98192;-86
2023/05/05 09:34:35;;;;;;;;;;;;;;;45.90;30.01;100888.28;4936120;28;98066;-76
2023/05/05 09:37:02;;;;;;;;;;;;;;;45.51;30.06;100889.44;4921820;28;98441;-84
2023/05/05 09:39:31;;;;;;;;;;;;;;;46.76;28.63;100894.88;4950508;28;98008;-73
2023/05/05 09:41:59;;;;;;;;;;;;;;;45.14;30.33;100889.25;4922600;28;97833;-74
2023/05/05 09:44:39;;;;;;;;;;;;;;;45.59;29.99;100897.53;4922862;28;99113;-75
2023/05/05 09:47:08;;;;;;;;;;;;;;;46.88;28.46;100892.88;4949505;27;99306;-77
2023/05/05 09:49:36;;;;;;;;;;;;;;;47.62;28.37;100886.94;4932775;28;98044;-84
2023/05/05 09:52:15;;;;;;;;;;;;;;;48.71;27.81;100894.97;4921716;28;98166;-75
2023/05/05 09:54:44;;;;;;;;;;;;;;;49.77;27.27;100893.69;4936100;28;97964;-87
2023/05/05 09:57:31;;;;;;;;;;;;;;;50.59;26.61;100898.47;4951171;27;98002;-72
2023/05/05 10:00:03;;;;;;;;;;;;;;;51.32;26.33;100891.81;4935627;28;99493;-76
2023/05/05 10:02:35;;;;;;;;;;;;;;;51.86;26.02;100887.84;4964601;28;98028;-72
2023/05/05 10:05:12;;;;;;;;;;;;;;;52.22;26.05;100885.41;4939137;28;99411;-84
2023/05/05 10:07:41;;;;;;;;;;;;;;;52.76;26.06;100874.72;4947037;28;98209;-84
2023/05/05 10:10:11;;;;;;;;;;;;;;;53.29;25.88;100873.84;4922536;28;97914;-82
2023/05/05 10:12:39;;;;;;;;;;;;;;;53.69;25.71;100877.34;4932481;28;97790;-73
2023/05/05 10:15:10;;;;;;;;;;;;;;;53.92;25.75;100869.69;4952430;28;98501;-74
2023/05/05 10:17:56;;;;;;;;;;;;;;;53.93;26.32;100868.38;4947569;28;97930;-84
2023/05/05 10:20:23;;;;;;;;;;;;;;;53.89;26.25;100852.81;4936944;28;98063;-81
2023/05/05 10:22:52;;;;;;;;;;;;;;;53.99;26.12;100850.94;4954070;28;98474;-74
2023/05/05 10:25:20;;;;;;;;;;;;;;;54.26;26.00;100845.78;4941760;28;98188;-81
2023/05/05 10:27:52;;;;;;;;;;;;;;;54.44;25.81;100835.31;4965008;28;98265;-72
2023/05/05 10:30:37;;;;;;;;;;;;;;;54.70;25.73;100836.41;4937171;28;97884;-70
2023/05/05 10:33:07;;;;;;;;;;;;;;;54.73;25.82;100832.38;4919340;28;98274;-82
2023/05/05 10:35:37;;;;;;;;;;;;;;;54.59;25.91;100829.63;4939435;28;98081;-80
2023/05/05 10:38:10;;;;;;;;;;;;;;;54.60;26.20;100821.75;4921254;28;98056;-73
2023/05/05 10:40:38;;;;;;;;;;;;;;;54.71;26.29;100817.75;4950084;28;98084;-73
2023/05/05 10:43:07;;;;;;;;;;;;;;;54.86;25.89;100814.94;4922301;28;98603;-71
2023/05/05 10:45:37;;;;;;;;;;;;;;;54.59;26.25;100811.56;4924398;27;98015;-85
2023/05/05 10:48:07;;;;;;;;;;;;;;;54.48;26.40;100804.00;4919386;28;98544;-75
2023/05/05 10:50:48;;;;;;;;;;;;;;;54.39;26.54;100808.16;4954352;27;98174;-86
2023/05/05 10:53:17;;;;;;;;;;;;;;;53.70;26.75;100804.81;4940230;28;98112;-75
2023/05/05 10:56:06;;;;;;;;;;;;;;;53.77;26.58;100797.56;4941113;28;97999;-85
2023/05/05 10:58:35;;;;;;;;;;;;;;;53.78;26.88;100804.09;4957378;28;98394;-82
2023/05/05 11:01:06;;;;;;;;;;;;;;;53.54;27.03;100800.25;4939271;28;98068;-73
2023/05/05 11:03:36;;;;;;;;;;;;;;;53.50;26.92;100791.19;4941339;28;98210;-71
2023/05/05 11:06:08;;;;;;;;;;;;;;;53.56;26.88;100794.69;4919822;28;97987;-81
2023/05/05 11:08:38;;;;;;;;;;;;;;;53.03;26.94;100783.41;4949672;28;98353;-72
2023/05/05 11:11:05;;;;;;;;;;;;;;;52.82;27.24;100785.44;4953137;27;97842;-82
2023/05/05 11:13:33;;;;;;;;;;;;;;;52.58;26.80;100777.88;4938121;28;98274;-72
2023/05/05 11:16:04;;;;;;;;;;;;;;;51.43;27.72;100776.06;4915927;28;98390;-82
2023/05/05 11:18:37;;;;;;;;;;;;;;;50.47;28.30;100780.28;4941783;28;98517;-79
2023/05/05 11:21:16;;;;;;;;;;;;;;;49.35;29.10;100764.94;4922977;28;98125;-82
2023/05/05 11:23:49;;;;;;;;;;;;;;;48.61;29.23;100769.50;4935009;27;98101;-77
2023/05/05 11:26:17;;;;;;;;;;;;;;;47.34;30.06;100766.31;4937126;28;98305;-82
2023/05/05 11:29:00;;;;;;;;;;;;;;;46.99;30.18;100764.66;4939645;28;98154;-81
2023/05/05 11:31:27;;;;;;;;;;;;;;;46.83;29.66;100768.22;4924975;28;99610;-81
2023/05/05 11:34:14;;;;;;;;;;;;;;;46.31;30.07;100760.75;4938272;27;98482;-72
2023/05/05 11:36:41;;;;;;;;;;;;;;;44.22;31.52;100753.41;4942079;28;98223;-79
2023/05/05 11:39:18;;;;;;;;;;;;;;;43.22;31.73;100747.63;4914448;28;98370;-77
2023/05/05 11:42:02;;;;;;;;;;;;;;;42.62;32.02;100752.31;4939587;28;99713;-81
2023/05/05 11:44:33;;;;;;;;;;;;;;;42.67;31.75;100753.72;4982491;27;98391;-80
2023/05/05 11:47:06;;;;;;;;;;;;;;;43.16;30.97;100760.91;4939695;28;98724;-73
2023/05/05 11:49:34;;;;;;;;;;;;;;;43.56;30.24;100758.31;4968841;28;99645;-79
2023/05/05 11:52:13;;;;;;;;;;;;;;;43.73;30.17;100750.06;4924939;28;98110;-74
2023/05/05 11:54:49;;;;;;;;;;;;;;;43.70;29.66;100756.72;4939293;28;98200;-71
2023/05/05 11:57:26;;;;;;;;;;;;;;;43.73;29.52;100747.22;4925325;28;98561;-71
2023/05/05 12:00:01;;;;;;;;;;;;;;;43.38;30.32;100749.97;4923143;28;98231;-73
2023/05/05 12:02:31;;;;;;;;;;;;;;;42.68;30.33;100750.41;4968492;27;98738;-71
2023/05/05 12:04:58;;;;;;;;;;;;;;;43.23;29.79;100747.13;4938714;28;97954;-81
2023/05/05 12:07:27;;;;;;;;;;;;;;;42.75;30.43;100744.38;4922323;28;98152;-79
2023/05/05 12:09:55;;;;;;;;;;;;;;;43.00;29.84;100743.06;4922506;28;97925;-72
2023/05/05 12:12:42;;;;;;;;;;;;;;;42.63;30.13;100734.06;4921545;28;98369;-80
2023/05/05 12:15:11;;;;;;;;;;;;;;;41.78;30.92;100742.69;4937394;28;98227;-80
2023/05/05 12:17:44;;;;;;;;;;;;;;;41.65;30.90;100745.69;4922892;28;98484;-71
2023/05/05 12:20:13;;;;;;;;;;;;;;;41.14;31.05;100732.28;4952720;28;98138;-77
2023/05/05 12:22:41;;;;;;;;;;;;;;;40.11;31.67;100720.53;4924408;28;98114;-72
2023/05/05 12:25:08;;;;;;;;;;;;;;;39.52;31.85;100719.59;4943845;28;97929;-75
2023/05/05 12:27:36;;;;;;;;;;;;;;;39.00;32.03;100716.25;4922436;28;98008;-80
2023/05/05 12:30:16;;;;;;;;;;;;;;;38.73;32.33;100716.78;4923076;28;98116;-79
2023/05/05 12:32:44;;;;;;;;;;;;;;;38.37;32.32;100717.22;4916490;28;98628;-80
2023/05/05 12:35:13;;;;;;;;;;;;;;;38.95;31.60;100722.50;4951481;28;98960;-80
2023/05/05 12:37:41;;;;;;;;;;;;;;;39.46;30.82;100724.25;4953359;28;98061;-78
2023/05/05 12:40:27;;;;;;;;;;;;;;;39.68;30.85;100727.84;4917926;28;98164;-80
2023/05/05 12:42:54;;;;;;;;;;;;;;;39.57;30.79;100713.34;4942310;28;98119;-80
2023/05/05 12:45:21;;;;;;;;;;;;;;;38.95;31.21;100711.22;4969007;27;99746;-81
2023/05/05 12:47:50;;;;;;;;;;;;;;;39.22;31.31;100709.81;4916495;28;98440;-77
2023/05/05 12:50:33;;;;;;;;;;;;;;;39.47;30.70;100714.56;4951280;27;98394;-83
2023/05/05 12:53:00;;;;;;;;;;;;;;;39.47;30.63;100708.94;4948955;28;98291;-79